Date,TemperatureHighF,TemperatureAvgF,TemperatureLowF,DewpointHighF,DewpointAvgF,DewpointLowF,HumidityHigh,HumidityAvg,HumidityLow,PressureMaxIn,PressureMinIn,WindSpeedMaxMPH,WindSpeedAvgMPH,GustSpeedMaxMPH,PrecipitationSumIn
2013-3-1,51.0,42.4,34.0,42.0,37.3,33.0,95,82,67,30.43,30.31,9,2,0,0.00
2013-3-2,54.0,47.5,42.0,41.0,38.6,36.0,86,71,57,30.31,30.00,9,3,0,0.00
2013-3-3,45.0,37.5,29.0,39.0,23.8,15.0,90,58,32,30.15,30.00,14,4,20,0.00
2013-3-4,45.0,32.9,20.0,28.0,20.2,15.0,89,63,32,30.22,30.02,16,4,15,0.00
2013-3-5,45.0,41.0,36.0,29.0,20.5,14.0,59,43,37,30.02,29.73,23,6,30,0.00
2013-3-6,49.0,40.8,32.0,37.0,31.3,27.0,89,69,48,29.92,29.60,20,4,22,0.00
2013-3-7,48.0,36.7,27.0,32.0,25.6,22.0,90,64,35,30.02,29.92,12,2,0,0.00
2013-3-8,50.0,37.7,26.0,30.0,25.7,21.0,82,63,34,30.09,29.92,16,5,0,0.00
2013-3-9,52.0,42.0,32.0,32.0,25.5,16.0,75,53,25,30.36,30.08,18,6,0,0.00
2013-3-10,55.0,40.9,27.0,39.0,26.3,16.0,90,60,22,30.38,30.24,10,2,18,0.00
2013-3-11,51.0,44.1,41.0,39.0,37.6,33.0,91,78,51,30.28,30.21,7,1,0,0.00
2013-3-12,62.0,48.2,38.0,42.0,37.7,32.0,90,70,34,30.21,30.08,12,2,17,0.00
2013-3-13,65.0,51.6,43.0,40.0,36.9,32.0,77,58,32,30.19,30.11,8,1,0,0.00
2013-3-14,66.0,51.8,40.0,40.0,36.3,32.0,80,57,34,30.15,30.02,13,3,0,0.00
2013-3-15,58.0,50.9,34.0,42.0,37.1,33.0,95,59,41,30.17,30.08,12,4,0,0.00
2013-3-16,53.0,44.2,34.0,38.0,33.8,25.0,87,67,40,30.10,29.82,14,4,27,0.00
2013-3-17,42.0,36.3,33.0,27.0,21.4,17.0,72,54,36,30.08,29.89,18,6,27,0.00
2013-3-18,48.0,38.9,33.0,26.0,23.3,18.0,77,55,29,30.15,30.03,14,5,24,0.00
2013-3-19,52.0,40.2,26.0,24.0,20.3,14.0,80,49,22,30.18,29.83,20,5,27,0.00
2013-3-20,55.0,44.8,34.0,42.0,35.4,19.0,85,70,26,29.94,29.60,24,8,39,0.00
2013-3-21,39.0,34.9,31.0,32.0,22.8,18.0,79,60,45,30.06,29.93,21,8,33,0.00
2013-3-22,37.0,31.6,28.0,32.0,22.7,19.0,81,67,51,30.20,30.02,16,6,27,0.00
2013-3-23,41.0,32.4,24.0,24.0,20.8,18.0,83,63,41,30.27,30.17,8,2,0,0.00
2013-3-24,48.0,34.4,22.0,24.0,21.0,18.0,85,60,34,30.23,30.08,7,1,0,0.00
2013-3-25,53.0,44.1,35.0,26.0,22.2,18.0,63,42,30,30.09,29.93,16,5,0,0.00
2013-3-26,58.0,47.0,38.0,38.0,31.5,25.0,69,55,42,29.96,29.89,16,2,0,0.00
2013-3-27,57.0,46.3,34.0,44.0,37.3,32.0,95,71,53,29.98,29.91,12,2,0,0.00
2013-3-28,59.0,47.7,40.0,45.0,40.9,37.0,89,78,49,30.09,29.97,14,2,0,0.00
2013-3-29,60.0,49.9,44.0,46.0,42.7,40.0,92,77,53,30.19,30.08,9,1,0,0.00
2013-3-30,66.0,49.3,35.0,42.0,34.9,-99.9,91,64,26,30.25,30.10,5,1,0,0.00
2013-3-31,70.0,51.4,34.0,42.0,35.3,30.0,86,57,27,30.10,29.89,18,4,0,0.00